Time;durP1;ratioP1;P1;durP2;ratioP2;P2;SDS_P1;SDS_P2;PMS_P1;PMS_P2;Temp;Humidity;BMP_temperature;BMP_pressure;BME280_temperature;BME280_humidity;BME280_pressure;Samples;Min_cycle;Max_cycle;Signal;HPM_P1;HPM_P2
2023/10/02 00:01:23;;;;;;;;;;;;;;;21.69;43.50;100726.03;4490804;31;33866;-68
2023/10/02 00:04:37;;;;;;;;;;;;;;;21.16;44.94;100726.06;4511703;31;33587;-68
2023/10/02 00:06:38;;;;;;;;;;;;;;;21.68;43.48;100724.25;4474536;32;34124;-68
2023/10/02 00:09:06;;;;;;;;;;;;;;;21.60;43.93;100725.91;4494444;31;33935;-68
2023/10/02 00:11:36;;;;;;;;;;;;;;;21.05;45.04;100727.63;4489478;31;34670;-68
2023/10/02 00:14:19;;;;;;;;;;;;;;;21.32;44.52;100733.34;4502148;31;33280;-68
2023/10/02 00:17:00;;;;;;;;;;;;;;;21.06;45.09;100746.09;4492398;31;35025;-68
2023/10/02 00:19:29;;;;;;;;;;;;;;;21.31;43.80;100730.72;4493094;31;34191;-68
2023/10/02 00:21:57;;;;;;;;;;;;;;;21.07;44.40;100733.81;4489644;31;34963;-68
2023/10/02 00:24:25;;;;;;;;;;;;;;;20.74;45.39;100737.63;4497149;31;33870;-68
2023/10/02 00:26:58;;;;;;;;;;;;;;;20.07;47.61;100729.25;4492086;31;34159;-68
2023/10/02 00:29:26;;;;;;;;;;;;;;;20.82;45.88;100736.00;4476547;32;33550;-68
2023/10/02 00:31:54;;;;;;;;;;;;;;;20.48;46.67;100735.37;4511250;31;34716;-68
2023/10/02 00:34:30;;;;;;;;;;;;;;;20.39;46.71;100724.66;4485262;31;33300;-68
2023/10/02 00:37:05;;;;;;;;;;;;;;;20.73;45.76;100725.34;4486468;31;34056;-68
2023/10/02 00:39:35;;;;;;;;;;;;;;;20.11;47.13;100728.47;4496400;31;33912;-68
2023/10/02 00:44:52;;;;;;;;;;;;;;;20.15;47.26;100718.06;4491590;31;33451;-68
2023/10/02 00:47:35;;;;;;;;;;;;;;;20.06;47.21;100717.84;4486641;31;35104;-68
2023/10/02 00:50:08;;;;;;;;;;;;;;;19.60;48.33;100714.19;4499115;31;34741;-68
2023/10/02 00:52:37;;;;;;;;;;;;;;;19.43;48.61;100719.97;4489291;31;33924;-68
2023/10/02 00:55:06;;;;;;;;;;;;;;;20.64;45.52;100714.63;4479980;31;33122;-68
2023/10/02 00:57:35;;;;;;;;;;;;;;;20.51;45.11;100719.63;4488855;31;34010;-68
2023/10/02 01:00:06;;;;;;;;;;;;;;;20.77;44.61;100720.16;4482959;31;34122;-68
2023/10/02 01:02:36;;;;;;;;;;;;;;;19.38;48.77;100718.09;4486571;31;33811;-68
2023/10/02 01:05:03;;;;;;;;;;;;;;;19.15;49.59;100721.03;4487664;31;33186;-68
2023/10/02 01:07:33;;;;;;;;;;;;;;;19.24;49.39;100720.38;4496613;31;34360;-68
2023/10/02 01:10:07;;;;;;;;;;;;;;;19.42;49.14;100723.44;4474055;31;34629;-68
2023/10/02 01:12:43;;;;;;;;;;;;;;;20.19;47.25;100717.25;4480445;31;33657;-68
2023/10/02 01:15:13;;;;;;;;;;;;;;;21.91;42.69;100718.41;4489956;31;33435;-68
2023/10/02 01:17:41;;;;;;;;;;;;;;;22.45;41.12;100727.91;4477956;31;34270;-68
2023/10/02 01:20:42;;;;;;;;;;;;;;;21.15;44.16;100725.19;4498919;31;33767;-68
2023/10/02 01:23:11;;;;;;;;;;;;;;;21.39;43.63;100721.16;4478731;32;33999;-68
2023/10/02 01:25:45;;;;;;;;;;;;;;;20.13;46.76;100726.78;4496052;31;33553;-68
2023/10/02 01:28:13;;;;;;;;;;;;;;;21.06;44.92;100735.56;4487982;31;34643;-68
2023/10/02 01:30:42;;;;;;;;;;;;;;;21.45;44.01;100733.59;4491442;31;34229;-68
2023/10/02 01:33:12;;;;;;;;;;;;;;;20.29;46.20;100726.22;4477252;32;33340;-68
2023/10/02 01:35:46;;;;;;;;;;;;;;;19.82;47.55;100728.75;4495329;31;33200;-68
2023/10/02 01:38:34;;;;;;;;;;;;;;;19.88;47.20;100728.87;4488311;31;34835;-68
2023/10/02 01:41:04;;;;;;;;;;;;;;;20.25;46.73;100732.28;4492574;31;34669;-68
2023/10/02 01:43:38;;;;;;;;;;;;;;;19.98;47.46;100735.22;4508372;31;34185;-68
2023/10/02 01:46:07;;;;;;;;;;;;;;;20.26;46.61;100734.03;4490314;31;33549;-68
2023/10/02 01:48:37;;;;;;;;;;;;;;;20.50;46.04;100738.91;4490192;31;34720;-68
2023/10/02 01:51:15;;;;;;;;;;;;;;;19.93;47.00;100734.22;4493115;31;34119;-68
2023/10/02 01:53:45;;;;;;;;;;;;;;;20.51;45.89;100735.41;4487424;31;33984;-68
2023/10/02 01:56:13;;;;;;;;;;;;;;;20.18;46.39;100735.63;4492175;31;32731;-68
2023/10/02 01:58:40;;;;;;;;;;;;;;;20.30;46.06;100735.00;4490497;31;34509;-68
2023/10/02 02:01:11;;;;;;;;;;;;;;;19.81;47.00;100738.34;4491351;31;34223;-68
2023/10/02 02:03:39;;;;;;;;;;;;;;;20.09;46.69;100735.44;4509715;31;34169;-68
2023/10/02 02:06:10;;;;;;;;;;;;;;;19.77;47.50;100741.78;4476201;31;33337;-68
2023/10/02 02:08:38;;;;;;;;;;;;;;;19.67;47.83;100731.87;4501884;31;34100;-68
2023/10/02 02:11:14;;;;;;;;;;;;;;;20.13;46.17;100735.56;4483877;31;32055;-68
2023/10/02 02:13:44;;;;;;;;;;;;;;;19.65;47.52;100728.34;4506199;31;33849;-68
2023/10/02 02:16:14;;;;;;;;;;;;;;;19.73;47.24;100732.06;4484528;32;33314;-68
2023/10/02 02:18:43;;;;;;;;;;;;;;;19.75;46.54;100730.34;4484360;32;34776;-68
2023/10/02 02:21:14;;;;;;;;;;;;;;;20.51;44.72;100730.16;4484303;32;34862;-68
2023/10/02 02:23:41;;;;;;;;;;;;;;;20.34;45.72;100734.19;4484078;32;33888;-68
2023/10/02 02:26:09;;;;;;;;;;;;;;;19.96;46.40;100729.06;4456637;32;33435;-68
2023/10/02 02:28:43;;;;;;;;;;;;;;;19.67;47.12;100738.91;4484232;32;34026;-68
2023/10/02 02:31:29;;;;;;;;;;;;;;;19.99;46.84;100739.63;4484352;32;33460;-68
2023/10/02 02:34:01;;;;;;;;;;;;;;;20.37;45.81;100742.16;4472366;32;33907;-68
2023/10/02 02:36:34;;;;;;;;;;;;;;;20.10;45.92;100743.38;4484268;32;34098;-68
2023/10/02 02:39:20;;;;;;;;;;;;;;;19.99;45.85;100744.88;4484141;32;34703;-68
2023/10/02 02:41:48;;;;;;;;;;;;;;;20.28;45.24;100739.34;4484127;32;34067;-68
2023/10/02 02:47:12;;;;;;;;;;;;;;;20.22;45.40;100750.62;4484065;32;33941;-68
2023/10/02 02:49:51;;;;;;;;;;;;;;;19.65;47.60;100745.00;4483707;32;34047;-68
2023/10/02 02:52:19;;;;;;;;;;;;;;;19.37;47.97;100753.97;4484042;31;34016;-68
2023/10/02 02:54:47;;;;;;;;;;;;;;;19.29;47.99;100745.00;4484053;31;34136;-68
2023/10/02 02:57:15;;;;;;;;;;;;;;;19.22;48.38;100748.34;4490100;31;33486;-68
2023/10/02 02:59:43;;;;;;;;;;;;;;;18.47;50.21;100760.34;4496229;31;33771;-68
2023/10/02 03:02:10;;;;;;;;;;;;;;;18.37;50.59;100758.28;4493308;31;32597;-68
2023/10/02 03:04:42;;;;;;;;;;;;;;;18.35;50.81;100755.66;4493394;31;34125;-68
2023/10/02 03:07:18;;;;;;;;;;;;;;;19.72;47.50;100759.22;4495322;31;33333;-68
2023/10/02 03:09:45;;;;;;;;;;;;;;;19.45;48.11;100760.31;4498209;31;33673;-68
2023/10/02 03:12:13;;;;;;;;;;;;;;;19.48;47.75;100761.22;4489417;31;35713;-68
2023/10/02 03:14:40;;;;;;;;;;;;;;;19.33;48.08;100759.97;4496607;31;34182;-68
2023/10/02 03:17:28;;;;;;;;;;;;;;;19.59;47.54;100759.75;4490330;31;33095;-68
2023/10/02 03:19:58;;;;;;;;;;;;;;;18.88;49.22;100764.97;4496292;31;34193;-68
2023/10/02 03:22:27;;;;;;;;;;;;;;;18.54;50.58;100762.28;4489065;31;33992;-68
2023/10/02 03:24:57;;;;;;;;;;;;;;;19.71;47.68;100765.28;4493462;31;34706;-68
2023/10/02 03:27:24;;;;;;;;;;;;;;;19.29;48.15;100768.66;4496668;31;32823;-68
2023/10/02 03:29:52;;;;;;;;;;;;;;;18.94;49.00;100773.88;4488469;31;33962;-68
2023/10/02 03:32:20;;;;;;;;;;;;;;;19.04;48.81;100773.31;4497630;31;33971;-68
2023/10/02 03:35:02;;;;;;;;;;;;;;;18.49;50.45;100773.50;4499500;31;34478;-68
2023/10/02 03:37:30;;;;;;;;;;;;;;;18.94;49.45;100779.13;4494642;31;33215;-68
2023/10/02 03:40:00;;;;;;;;;;;;;;;19.42;47.92;100777.72;4512061;31;34353;-68
2023/10/02 03:42:36;;;;;;;;;;;;;;;19.79;46.71;100769.00;4495788;31;34762;-68
2023/10/02 03:45:04;;;;;;;;;;;;;;;19.73;46.64;100768.84;4500412;31;34000;-68
2023/10/02 03:47:34;;;;;;;;;;;;;;;19.86;45.75;100769.13;4501667;31;33280;-68
2023/10/02 03:50:02;;;;;;;;;;;;;;;20.08;45.42;100771.38;4498898;31;34062;-68
2023/10/02 03:52:32;;;;;;;;;;;;;;;19.91;45.69;100778.00;4491037;31;33216;-68
2023/10/02 03:55:17;;;;;;;;;;;;;;;20.12;45.19;100778.47;4493110;31;34107;-68
2023/10/02 03:57:47;;;;;;;;;;;;;;;19.69;47.52;100777.50;4498809;31;33185;-68
2023/10/02 04:00:19;;;;;;;;;;;;;;;19.92;47.12;100777.16;4489013;31;35059;-68
2023/10/02 04:02:48;;;;;;;;;;;;;;;19.19;48.99;100779.78;4481184;32;34023;-68
2023/10/02 04:05:30;;;;;;;;;;;;;;;19.41;48.34;100789.06;4503574;31;33999;-68
2023/10/02 04:08:13;;;;;;;;;;;;;;;20.84;45.00;100781.69;4511685;31;32767;-68
2023/10/02 04:10:51;;;;;;;;;;;;;;;20.57;45.11;100782.03;4498018;31;34224;-68
2023/10/02 04:13:27;;;;;;;;;;;;;;;20.43;45.28;100777.38;4496789;31;34133;-68
2023/10/02 04:16:28;;;;;;;;;;;;;;;20.33;45.23;100771.91;4498638;31;33848;-68
2023/10/02 04:18:58;;;;;;;;;;;;;;;20.46;44.84;100779.19;4480053;31;33256;-71
2023/10/02 04:21:27;;;;;;;;;;;;;;;20.60;44.49;100777.75;4508911;31;33878;-70
2023/10/02 04:23:56;;;;;;;;;;;;;;;20.42;46.05;100772.09;4475640;31;32510;-70
2023/10/02 04:26:24;;;;;;;;;;;;;;;21.18;44.28;100777.91;4508354;31;34656;-68
2023/10/02 04:29:09;;;;;;;;;;;;;;;21.83;42.56;100772.78;4500172;31;33763;-68
2023/10/02 04:31:41;;;;;;;;;;;;;;;22.18;41.62;100775.94;4493050;31;34181;-68
2023/10/02 04:34:29;;;;;;;;;;;;;;;22.11;41.64;100782.87;4498252;31;34146;-68
2023/10/02 04:36:57;;;;;;;;;;;;;;;22.27;41.48;100775.19;4485935;31;34338;-67
2023/10/02 04:39:52;;;;;;;;;;;;;;;22.31;41.75;100771.72;4496148;31;33810;-68
2023/10/02 04:42:15;;;;;;;;;;;;;;;20.62;45.52;100786.56;4486350;31;33890;-68
2023/10/02 04:44:47;;;;;;;;;;;;;;;20.53;45.88;100791.62;4493194;31;34631;-68
2023/10/02 04:47:17;;;;;;;;;;;;;;;20.77;45.46;100785.97;4488971;31;34794;-68
2023/10/02 04:55:24;;;;;;;;;;;;;;;19.63;48.56;100799.25;4495051;31;33906;-68
2023/10/02 04:57:54;;;;;;;;;;;;;;;20.54;46.57;100803.91;4492104;31;34122;-68
2023/10/02 05:03:24;;;;;;;;;;;;;;;21.13;45.22;100805.03;4468605;31;34086;-68
2023/10/02 05:05:58;;;;;;;;;;;;;;;22.18;42.62;100805.84;4495061;31;35046;-68
2023/10/02 05:09:19;;;;;;;;;;;;;;;22.30;42.38;100812.19;4489550;31;34825;-68
2023/10/02 05:14:26;;;;;;;;;;;;;;;20.42;46.94;100827.34;4479322;31;34091;-68
2023/10/02 05:17:19;;;;;;;;;;;;;;;21.13;45.37;100828.75;4477304;31;34806;-68
2023/10/02 05:19:56;;;;;;;;;;;;;;;20.77;45.89;100828.09;4492403;31;34782;-68
2023/10/02 05:22:25;;;;;;;;;;;;;;;20.72;45.95;100834.13;4495455;31;32995;-68
2023/10/02 05:24:59;;;;;;;;;;;;;;;21.05;45.34;100827.72;4484717;31;33861;-68
2023/10/02 05:27:40;;;;;;;;;;;;;;;20.58;46.41;100832.06;4479447;31;35152;-68
2023/10/02 05:30:17;;;;;;;;;;;;;;;21.07;45.41;100836.53;4495415;31;34084;-68
2023/10/02 05:32:45;;;;;;;;;;;;;;;20.35;46.83;100833.34;4487580;31;33434;-68
2023/10/02 05:37:45;;;;;;;;;;;;;;;20.56;46.80;100833.78;4488203;31;33947;-68
2023/10/02 05:50:56;;;;;;;;;;;;;;;20.83;46.34;100847.53;4491475;31;33808;-68
2023/10/02 05:53:26;;;;;;;;;;;;;;;20.78;46.25;100852.69;4489217;31;34240;-68
2023/10/02 05:56:05;;;;;;;;;;;;;;;21.36;45.16;100850.25;4488296;31;33382;-68
2023/10/02 05:58:37;;;;;;;;;;;;;;;21.09;45.84;100856.78;4494493;31;34311;-68
2023/10/02 06:01:18;;;;;;;;;;;;;;;20.38;47.36;100850.09;4485294;31;34828;-68
2023/10/02 06:03:56;;;;;;;;;;;;;;;20.45;47.39;100856.34;4461157;31;33350;-68
2023/10/02 06:06:25;;;;;;;;;;;;;;;20.37;47.71;100857.94;4486435;31;33598;-68
2023/10/02 06:08:56;;;;;;;;;;;;;;;20.70;46.54;100862.16;4489411;31;34993;-68
2023/10/02 06:11:26;;;;;;;;;;;;;;;20.55;47.22;100857.44;4495319;31;34436;-68
2023/10/02 06:14:10;;;;;;;;;;;;;;;22.13;43.46;100867.34;4488307;31;33091;-68
2023/10/02 06:16:40;;;;;;;;;;;;;;;22.47;42.85;100873.12;4480277;32;34545;-68
2023/10/02 06:19:15;;;;;;;;;;;;;;;21.10;46.11;100886.66;4479528;31;33111;-68
2023/10/02 06:21:46;;;;;;;;;;;;;;;22.44;43.26;100873.06;4493944;31;34596;-68
2023/10/02 06:24:14;;;;;;;;;;;;;;;22.86;42.28;100877.13;4487604;31;33313;-68
2023/10/02 06:26:57;;;;;;;;;;;;;;;23.43;40.98;100883.03;4490201;31;34178;-68
2023/10/02 06:29:28;;;;;;;;;;;;;;;22.57;43.21;100886.44;4473472;31;34076;-68
2023/10/02 06:31:59;;;;;;;;;;;;;;;22.90;41.94;100887.72;4484714;31;33222;-68
2023/10/02 06:34:39;;;;;;;;;;;;;;;21.68;44.62;100887.75;4471557;31;33269;-68
2023/10/02 06:37:13;;;;;;;;;;;;;;;22.25;43.59;100882.50;4490614;31;35158;-68
2023/10/02 06:39:42;;;;;;;;;;;;;;;22.29;43.77;100889.56;4477719;31;35033;-68
2023/10/02 06:42:10;;;;;;;;;;;;;;;22.82;42.76;100881.47;4488971;31;34765;-68
2023/10/02 06:44:52;;;;;;;;;;;;;;;23.08;42.41;100884.47;4483745;32;34263;-68
2023/10/02 06:47:21;;;;;;;;;;;;;;;22.47;43.39;100875.78;4483266;32;35103;-68
2023/10/02 06:49:51;;;;;;;;;;;;;;;22.33;43.87;100881.75;4483381;32;34234;-68
2023/10/02 06:52:22;;;;;;;;;;;;;;;22.59;43.17;100873.28;4482980;32;33886;-69
2023/10/02 06:54:49;;;;;;;;;;;;;;;23.77;41.14;100880.69;4483855;32;34082;-68
2023/10/02 06:57:18;;;;;;;;;;;;;;;23.45;41.98;100879.56;4470301;32;34946;-68
2023/10/02 06:59:51;;;;;;;;;;;;;;;23.21;42.58;100880.19;4490133;31;34058;-68
2023/10/02 07:02:19;;;;;;;;;;;;;;;23.44;42.18;100887.47;4474503;31;34870;-68
2023/10/02 07:04:48;;;;;;;;;;;;;;;23.75;40.95;100889.47;4477859;31;30577;-68
2023/10/02 07:07:20;;;;;;;;;;;;;;;23.42;40.86;100883.91;4490429;31;34923;-69
2023/10/02 07:09:48;;;;;;;;;;;;;;;23.83;40.32;100891.34;4492489;31;33464;-69
2023/10/02 07:12:15;;;;;;;;;;;;;;;23.96;40.19;100881.75;4486246;31;34549;-68
2023/10/02 07:14:43;;;;;;;;;;;;;;;24.08;40.17;100880.06;4488718;31;33430;-68
2023/10/02 07:17:17;;;;;;;;;;;;;;;23.87;40.60;100890.50;4494825;31;34066;-69
2023/10/02 07:19:51;;;;;;;;;;;;;;;23.94;41.42;100885.25;4492250;31;34139;-69
2023/10/02 07:22:22;;;;;;;;;;;;;;;24.01;39.91;100890.59;4494152;31;33925;-69
2023/10/02 07:24:52;;;;;;;;;;;;;;;24.16;39.78;100892.47;4491666;31;33450;-69
2023/10/02 07:27:24;;;;;;;;;;;;;;;24.24;39.86;100878.41;4493293;31;34353;-68
2023/10/02 07:29:54;;;;;;;;;;;;;;;23.71;39.57;100887.69;4488001;31;34099;-68
2023/10/02 07:32:23;;;;;;;;;;;;;;;24.23;38.85;100886.34;4491793;31;34134;-69
2023/10/02 07:34:51;;;;;;;;;;;;;;;24.68;38.29;100890.13;4487397;31;33115;-69
2023/10/02 07:37:23;;;;;;;;;;;;;;;25.18;37.68;100892.06;4471826;32;34339;-68
2023/10/02 07:39:56;;;;;;;;;;;;;;;25.35;37.59;100888.59;4488291;31;34392;-68
2023/10/02 07:42:24;;;;;;;;;;;;;;;25.55;36.99;100892.13;4485040;32;34988;-68
2023/10/02 07:44:52;;;;;;;;;;;;;;;25.92;36.20;100886.84;4485049;32;33416;-69
2023/10/02 07:47:21;;;;;;;;;;;;;;;25.62;36.79;100896.56;4485056;32;34190;-69
2023/10/02 07:49:51;;;;;;;;;;;;;;;25.57;37.26;100900.09;4483611;32;34063;-68
2023/10/02 07:52:38;;;;;;;;;;;;;;;26.48;34.32;100899.16;4485265;32;33867;-68
2023/10/02 07:55:10;;;;;;;;;;;;;;;26.15;35.39;100894.78;4485126;32;33413;-68
2023/10/02 07:57:38;;;;;;;;;;;;;;;26.73;34.89;100899.06;4484734;32;34967;-68
2023/10/02 08:00:33;;;;;;;;;;;;;;;26.54;34.93;100902.66;4485217;32;34250;-68
2023/10/02 08:02:54;;;;;;;;;;;;;;;27.18;34.10;100897.09;4486658;31;34406;-69
2023/10/02 08:05:21;;;;;;;;;;;;;;;27.43;33.90;100896.97;4477909;31;34078;-69
2023/10/02 08:08:08;;;;;;;;;;;;;;;27.72;33.28;100903.81;4495797;31;34234;-69
2023/10/02 08:10:49;;;;;;;;;;;;;;;27.82;33.20;100897.53;4493703;31;34269;-68
2023/10/02 08:13:17;;;;;;;;;;;;;;;28.25;32.57;100894.47;4489391;31;34525;-68
2023/10/02 08:15:44;;;;;;;;;;;;;;;28.36;32.72;100903.25;4498523;31;33211;-68
2023/10/02 08:18:17;;;;;;;;;;;;;;;28.11;32.62;100904.41;4493777;31;33963;-68
2023/10/02 08:20:45;;;;;;;;;;;;;;;27.86;32.56;100896.59;4488396;31;34863;-68
2023/10/02 08:23:22;;;;;;;;;;;;;;;28.56;32.15;100894.16;4489181;31;34046;-68
2023/10/02 08:26:00;;;;;;;;;;;;;;;28.71;31.94;100888.66;4498557;31;33114;-68
2023/10/02 08:28:52;;;;;;;;;;;;;;;28.32;32.57;100896.19;4493921;31;34202;-68
2023/10/02 08:31:20;;;;;;;;;;;;;;;29.09;31.41;100899.69;4487172;31;34998;-68
2023/10/02 08:33:48;;;;;;;;;;;;;;;29.51;30.50;100890.19;4498280;31;33701;-68
2023/10/02 08:36:29;;;;;;;;;;;;;;;28.82;31.51;100892.06;4491851;31;33566;-68
2023/10/02 08:38:59;;;;;;;;;;;;;;;29.27;30.79;100888.78;4493420;31;34189;-68
2023/10/02 08:41:45;;;;;;;;;;;;;;;29.76;30.58;100882.66;4490185;31;34195;-68
2023/10/02 08:44:13;;;;;;;;;;;;;;;29.97;30.10;100886.75;4488353;31;33921;-68
2023/10/02 08:46:44;;;;;;;;;;;;;;;30.13;29.24;100881.13;4497156;31;33312;-68
2023/10/02 08:49:12;;;;;;;;;;;;;;;30.50;29.34;100881.34;4491839;31;34338;-68
2023/10/02 08:51:48;;;;;;;;;;;;;;;30.92;28.54;100877.78;4482969;32;33891;-69
2023/10/02 08:54:17;;;;;;;;;;;;;;;30.78;28.77;100873.59;4482852;32;33606;-68
2023/10/02 08:57:01;;;;;;;8.95;2.83;;;;;;;31.44;27.59;100879.25;4484637;32;33471;-68
2023/10/02 08:59:35;;;;;;;6.68;2.53;;;;;;;31.44;27.03;100886.41;4481747;32;33515;-68
2023/10/02 09:02:14;;;;;;;10.60;2.92;;;;;;;31.10;27.74;100885.41;4483103;32;33715;-68
2023/10/02 09:04:57;;;;;;;7.82;2.58;;;;;;;30.95;27.95;100878.59;4482277;32;33482;-68
2023/10/02 09:13:17;;;;;;;10.20;2.70;;;;;;;31.35;27.91;100882.13;4484993;31;32939;-68
2023/10/02 09:15:48;;;;;;;10.23;2.62;;;;;;;31.93;25.98;100877.13;4480761;31;32841;-68
2023/10/02 09:19:07;;;;;;;8.07;2.57;;;;;;;31.48;27.36;100880.97;4482114;31;32872;-68
2023/10/02 09:21:38;;;;;;;7.65;2.72;;;;;;;31.93;26.91;100867.31;4474298;31;30957;-68
2023/10/02 09:24:20;;;;;;;8.07;2.53;;;;;;;31.86;26.39;100862.16;4485965;31;32991;-68
2023/10/02 09:26:49;;;;;;;7.47;2.70;;;;;;;31.96;26.71;100862.78;4476283;31;32728;-68
2023/10/02 09:29:19;;;;;;;7.73;2.80;;;;;;;31.90;26.10;100861.16;4474884;32;33265;-68
2023/10/02 09:31:48;;;;;;;9.27;3.10;;;;;;;32.82;25.37;100860.37;4491659;31;33399;-68
2023/10/02 09:34:17;;;;;;;7.97;2.97;;;;;;;32.90;25.76;100864.59;4496246;31;34309;-68
2023/10/02 09:37:11;;;;;;;8.43;2.50;;;;;;;32.21;25.66;100857.66;4492320;31;32938;-68
2023/10/02 09:40:14;;;;;;;8.50;2.83;;;;;;;32.57;25.20;100861.13;4477035;31;32417;-68
2023/10/02 09:42:48;;;;;;;7.47;2.50;;;;;;;31.84;26.28;100855.97;4493278;31;32747;-68
2023/10/02 09:45:30;;;;;;;7.22;2.55;;;;;;;31.79;26.92;100858.75;4495683;31;33439;-68
2023/10/02 09:48:46;;;;;;;9.88;2.90;;;;;;;31.68;27.34;100860.81;4476149;31;33607;-68
2023/10/02 09:51:06;;;;;;;8.88;3.12;;;;;;;32.49;25.76;100858.62;4495911;31;32362;-68
2023/10/02 09:54:02;;;;;;;8.88;3.20;;;;;;;32.82;25.20;100857.69;4452893;32;32346;-68
2023/10/02 09:57:13;;;;;;;9.25;3.10;;;;;;;32.78;25.55;100861.38;4462792;31;33602;-68
2023/10/02 09:59:47;;;;;;;9.33;2.80;;;;;;;32.59;25.70;100850.31;4467145;32;33537;-68
2023/10/02 10:08:19;;;;;;;;;;;;;;;32.37;25.92;100847.37;4484762;31;34660;-68
2023/10/02 10:10:49;;;;;;;;;;;;;;;31.56;25.66;100854.00;4490306;31;33588;-68
2023/10/02 10:13:46;;;;;;;;;;;;;;;32.96;24.00;100852.78;4473641;31;33588;-68
2023/10/02 10:16:18;;;;;;;;;;;;;;;33.09;24.63;100845.22;4485184;31;34012;-68
2023/10/02 10:21:55;;;;;;;;;;;;;;;32.79;24.77;100849.75;4483749;32;33885;-68
2023/10/02 10:24:34;;;;;;;;;;;;;;;32.91;25.36;100843.97;4476969;32;31576;-68
2023/10/02 10:27:02;;;;;;;;;;;;;;;32.91;25.06;100849.34;4481710;32;34307;-68
2023/10/02 10:29:41;;;;;;;;;;;;;;;32.85;24.71;100838.81;4482914;31;34127;-68
2023/10/02 10:32:18;;;;;;;;;;;;;;;33.18;24.07;100838.69;4484173;32;34792;-68
2023/10/02 10:35:12;;;;;;;;;;;;;;;32.69;24.74;100839.28;4485186;32;33381;-68
2023/10/02 10:37:41;;;;;;;;;;;;;;;32.66;24.30;100839.38;4485129;32;33983;-68
2023/10/02 10:40:40;;;;;;;;;;;;;;;33.27;24.06;100833.03;4483917;31;33995;-68
2023/10/02 10:42:59;;;;;;;;;;;;;;;33.04;24.60;100829.25;4492991;31;32854;-68
2023/10/02 10:45:33;;;;;;;;;;;;;;;32.93;24.09;100831.38;4489621;31;33512;-69
2023/10/02 10:48:01;;;;;;;;;;;;;;;32.60;24.21;100825.28;4490292;31;33975;-69
2023/10/02 10:50:29;;;;;;;;;;;;;;;32.47;25.24;100820.25;4491935;31;34031;-69
2023/10/02 10:53:02;;;;;;;;;;;;;;;33.17;24.21;100820.84;4495918;31;33923;-69
2023/10/02 10:55:32;;;;;;;;;;;;;;;33.85;24.26;100812.25;4497874;31;33567;-69
2023/10/02 10:58:04;;;;;;;;;;;;;;;33.30;24.26;100817.69;4490826;31;34866;-69
2023/10/02 11:00:41;;;;;;;;;;;;;;;33.53;23.38;100804.41;4493454;31;34879;-69
2023/10/02 11:03:14;;;;;;;;;;;;;;;33.57;24.41;100795.31;4490547;31;34104;-69
2023/10/02 11:05:43;;;;;;;;;;;;;;;33.56;24.38;100799.81;4492523;31;32931;-69
2023/10/02 11:08:25;;;;;;;;;;;;;;;33.62;23.34;100791.53;4484814;32;34117;-69
2023/10/02 11:11:00;;;;;;;;;;;;;;;33.00;24.45;100800.75;4483512;32;34100;-69
2023/10/02 11:13:29;;;;;;;;;;;;;;;33.36;24.28;100795.12;4485135;32;33992;-69
2023/10/02 11:15:58;;;;;;;;;;;;;;;34.37;23.08;100781.69;4485646;32;34164;-69
2023/10/02 11:18:28;;;;;;;;;;;;;;;34.09;23.28;100793.44;4484624;32;34888;-69
2023/10/02 11:20:57;;;;;;;;;;;;;;;34.08;23.18;100780.97;4487369;31;34857;-69
2023/10/02 11:23:37;;;;;;;;;;;;;;;34.00;23.49;100778.56;4494043;31;33664;-69
2023/10/02 11:26:13;;;;;;;;;;;;;;;33.43;24.23;100774.31;4489876;31;33401;-69
2023/10/02 11:28:42;;;;;;;;;;;;;;;33.47;24.35;100773.25;4484633;32;34720;-69
2023/10/02 11:31:12;;;;;;;;;;;;;;;33.41;24.38;100774.34;4484974;32;34239;-69
2023/10/02 11:33:40;;;;;;;;;;;;;;;33.43;24.66;100767.12;4484437;32;33893;-69
2023/10/02 11:36:11;;;;;;;;;;;;;;;33.97;24.09;100773.28;4485241;32;32779;-69
2023/10/02 11:38:38;;;;;;;;;;;;;;;34.30;23.07;100769.41;4484484;32;34633;-69
2023/10/02 11:41:05;;;;;;;;;;;;;;;33.47;24.28;100774.12;4484871;32;34181;-69
2023/10/02 11:43:34;;;;;;;;;;;;;;;33.12;24.82;100778.03;4490684;31;33626;-69
2023/10/02 11:46:01;;;;;;;;;;;;;;;33.42;24.43;100770.75;4491005;31;34115;-69
2023/10/02 11:48:29;;;;;;;;;;;;;;;33.66;24.37;100762.78;4484049;32;32499;-69
2023/10/02 11:50:57;;;;;;;;;;;;;;;33.89;24.03;100765.50;4484775;32;34339;-69
2023/10/02 11:53:24;;;;;;;;;;;;;;;34.66;22.86;100757.22;4474779;32;34180;-70
2023/10/02 11:55:53;;;;;;;;;;;;;;;34.18;23.32;100755.50;4485228;32;34064;-69
2023/10/02 11:58:21;;;;;;;;;;;;;;;34.00;23.32;100751.69;4484725;32;34095;-69
2023/10/02 12:00:48;;;;;;;;;;;;;;;34.14;23.22;100742.22;4485639;32;34342;-69
2023/10/02 12:03:18;;;;;;;;;;;;;;;34.37;22.98;100744.03;4492577;31;33918;-69
2023/10/02 12:05:45;;;;;;;;;;;;;;;34.81;22.03;100742.28;4488397;31;34091;-69
2023/10/02 12:08:13;;;;;;;;;;;;;;;34.31;22.83;100738.87;4485074;32;33723;-69
2023/10/02 12:10:41;;;;;;;;;;;;;;;33.72;24.33;100734.81;4485798;32;35091;-69
2023/10/02 12:13:08;;;;;;;;;;;;;;;33.82;23.59;100731.75;4485791;32;33691;-69
2023/10/02 12:15:36;;;;;;;;;;;;;;;33.69;24.23;100731.31;4485342;32;33419;-69
2023/10/02 12:18:04;;;;;;;;;;;;;;;34.19;23.07;100733.06;4485238;32;35058;-69
2023/10/02 12:20:31;;;;;;;;;;;;;;;34.47;22.46;100731.97;4485542;32;33655;-69
2023/10/02 12:22:59;;;;;;;;;;;;;;;34.20;22.56;100732.13;4485276;32;34129;-69
2023/10/02 12:25:27;;;;;;;;;;;;;;;34.37;22.03;100725.22;4471044;32;32107;-69
2023/10/02 12:27:54;;;;;;;;;;;;;;;34.11;23.01;100731.56;4470742;32;34867;-69
2023/10/02 12:30:22;;;;;;;;;;;;;;;34.65;21.94;100725.88;4484760;32;34167;-69
2023/10/02 12:32:49;;;;;;;;;;;;;;;33.45;23.45;100713.34;4484988;32;34304;-69
2023/10/02 12:35:17;;;;;;;;;;;;;;;33.55;23.78;100716.59;4484895;32;33206;-69
2023/10/02 12:37:45;;;;;;;;;;;;;;;34.00;23.15;100719.41;4484741;32;34150;-69
2023/10/02 12:40:18;;;;;;;;;;;;;;;33.50;23.90;100709.56;4485468;32;33981;-69
2023/10/02 12:42:45;;;;;;;;;;;;;;;33.69;23.31;100703.56;4484957;32;34824;-69
2023/10/02 12:45:13;;;;;;;;;;;;;;;34.14;22.55;100710.81;4485558;32;33279;-69
2023/10/02 12:47:41;;;;;;;;;;;;;;;33.69;23.40;100709.81;4494561;31;34932;-69
2023/10/02 12:50:10;;;;;;;;;;;;;;;34.44;22.84;100713.25;4497496;31;33975;-69
2023/10/02 12:52:38;;;;;;;;;;;;;;;33.63;23.81;100699.31;4491916;31;34031;-69
2023/10/02 12:55:06;;;;;;;;;;;;;;;33.71;23.86;100700.81;4492410;31;33366;-69
2023/10/02 12:57:36;;;;;;;;;;;;;;;34.32;22.96;100693.09;4496601;31;33624;-69
2023/10/02 13:00:16;;;;;;;;;;;;;;;34.13;23.12;100698.28;4497965;31;33905;-69
2023/10/02 13:02:44;;;;;;;;;;;;;;;34.63;22.61;100692.72;4491218;31;34218;-69
2023/10/02 13:05:12;;;;;;;;;;;;;;;34.72;22.46;100682.59;4491624;31;33964;-69
2023/10/02 13:07:41;;;;;;;;;;;;;;;35.11;21.56;100687.22;4497551;31;34199;-69
2023/10/02 13:10:09;;;;;;;;;;;;;;;35.10;21.71;100680.06;4488045;31;33964;-69
2023/10/02 13:12:36;;;;;;;;;;;;;;;35.05;21.93;100678.44;4496242;31;33853;-69
2023/10/02 13:15:06;;;;;;;;;;;;;;;34.65;21.72;100680.13;4492261;31;33447;-69
2023/10/02 13:17:34;;;;;;;;;;;;;;;34.42;22.60;100677.47;4492963;31;34984;-69
2023/10/02 13:20:07;;;;;;;;;;;;;;;34.59;22.66;100664.22;4487688;31;33883;-69
2023/10/02 13:22:37;;;;;;;;;;;;;;;34.98;21.93;100668.91;4499596;31;33527;-69
2023/10/02 13:25:05;;;;;;;;;;;;;;;34.89;22.13;100665.69;4491322;31;33094;-69
2023/10/02 13:27:32;;;;;;;;;;;;;;;34.62;22.81;100664.09;4488178;31;34266;-70
2023/10/02 13:29:59;;;;;;;;;;;;;;;34.46;22.99;100669.25;4491118;31;34048;-69
2023/10/02 13:32:27;;;;;;;;;;;;;;;35.20;21.37;100654.53;4495618;31;34877;-69
2023/10/02 13:34:56;;;;;;;;;;;;;;;34.75;22.36;100655.53;4492024;31;33552;-69
2023/10/02 13:37:24;;;;;;;;;;;;;;;34.52;22.62;100662.75;4493064;31;34379;-69
2023/10/02 13:39:52;;;;;;;;;;;;;;;35.32;21.50;100653.13;4491489;31;35059;-69
2023/10/02 13:42:19;;;;;;;;;;;;;;;35.24;22.31;100651.63;4493459;31;34078;-69
2023/10/02 13:44:47;;;;;;;;;;;;;;;34.92;22.29;100654.81;4493787;31;33187;-69